Time;durP1;ratioP1;P1;durP2;ratioP2;P2;SDS_P1;SDS_P2;PMS_P1;PMS_P2;Temp;Humidity;BMP_temperature;BMP_pressure;BME280_temperature;BME280_humidity;BME280_pressure;Samples;Min_cycle;Max_cycle;Signal;HPM_P1;HPM_P2
2024/01/19 00:00:07;;;;;;;7.33;1.60;;;0.30;99.90;;;;;;5091266;28;20090;-70
2024/01/19 00:02:33;;;;;;;6.13;1.50;;;0.20;99.90;;;;;;5069697;28;20678;-71
2024/01/19 00:04:59;;;;;;;7.07;1.50;;;0.20;99.90;;;;;;5067338;28;20051;-71
2024/01/19 00:07:25;;;;;;;7.23;1.63;;;0.20;99.90;;;;;;5070035;28;20081;-71
2024/01/19 00:09:51;;;;;;;6.80;1.30;;;0.20;99.90;;;;;;5073768;28;20035;-70
2024/01/19 00:12:17;;;;;;;7.83;2.23;;;0.20;99.90;;;;;;5092679;28;20054;-70
2024/01/19 00:14:42;;;;;;;5.07;1.47;;;0.30;99.90;;;;;;5090954;28;20127;-71
2024/01/19 00:17:08;;;;;;;5.63;1.37;;;0.10;99.90;;;;;;5070949;28;20039;-71
2024/01/19 00:19:34;;;;;;;9.13;1.87;;;0.10;99.90;;;;;;5091966;28;20044;-71
2024/01/19 00:22:00;;;;;;;5.83;1.70;;;0.10;99.90;;;;;;5092291;28;20490;-71
2024/01/19 00:24:25;;;;;;;6.10;1.70;;;0.10;99.90;;;;;;5090068;28;20585;-71
2024/01/19 00:26:51;;;;;;;7.47;1.57;;;0.10;99.90;;;;;;5073732;28;20506;-70
2024/01/19 00:29:20;;;;;;;5.30;1.67;;;0.10;99.90;;;;;;5085119;28;20051;-71
2024/01/19 00:31:47;;;;;;;7.20;1.80;;;0.00;99.90;;;;;;5071749;28;20229;-71
2024/01/19 00:34:14;;;;;;;6.77;2.00;;;-0.10;99.90;;;;;;5072537;28;20043;-71
2024/01/19 00:36:40;;;;;;;11.07;2.10;;;-0.10;99.90;;;;;;5089986;28;20090;-70
2024/01/19 00:39:06;;;;;;;9.63;2.30;;;-0.10;99.90;;;;;;5090031;28;20047;-71
2024/01/19 00:41:31;;;;;;;7.97;2.30;;;-0.10;99.90;;;;;;5077442;28;20044;-71
2024/01/19 00:43:57;;;;;;;8.47;2.50;;;-0.20;99.90;;;;;;5088330;28;20452;-71
2024/01/19 00:46:23;;;;;;;9.93;2.33;;;-0.20;99.90;;;;;;5090378;28;20047;-71
2024/01/19 00:48:49;;;;;;;9.73;2.77;;;-0.20;99.90;;;;;;5089750;28;20104;-75
2024/01/19 00:51:16;;;;;;;7.37;2.53;;;-0.20;99.90;;;;;;5084782;28;20044;-74
2024/01/19 00:53:43;;;;;;;7.53;1.90;;;-0.30;99.90;;;;;;5070286;28;20485;-74
2024/01/19 00:56:09;;;;;;;9.00;2.30;;;-0.20;99.90;;;;;;5083720;28;20049;-74
2024/01/19 00:58:42;;;;;;;6.43;2.20;;;-0.20;99.90;;;;;;5065023;28;20040;-74
2024/01/19 01:01:08;;;;;;;8.13;2.17;;;-0.10;99.90;;;;;;5088787;28;20104;-74
2024/01/19 01:03:33;;;;;;;8.10;2.53;;;-0.10;99.90;;;;;;5072354;28;20043;-74
2024/01/19 01:06:03;;;;;;;7.17;2.50;;;-0.10;99.90;;;;;;5091794;28;20097;-71
2024/01/19 01:08:35;;;;;;;19.33;2.60;;;-0.10;99.90;;;;;;5079889;28;20062;-71
2024/01/19 01:11:02;;;;;;;7.63;2.37;;;-0.10;99.90;;;;;;5091103;28;20043;-70
2024/01/19 01:13:28;;;;;;;7.93;2.53;;;-0.10;99.90;;;;;;5088726;28;20070;-71
2024/01/19 01:15:54;;;;;;;7.13;2.27;;;0.00;99.90;;;;;;5089732;28;20506;-71
2024/01/19 01:18:20;;;;;;;8.93;2.13;;;0.00;99.90;;;;;;5087023;28;20042;-71
2024/01/19 01:20:46;;;;;;;11.63;2.27;;;0.00;99.90;;;;;;5090676;28;20047;-71
2024/01/19 01:23:11;;;;;;;8.27;2.23;;;0.00;99.90;;;;;;5086630;28;20070;-71
2024/01/19 01:25:37;;;;;;;7.30;2.00;;;0.10;99.90;;;;;;5106699;28;20043;-71
2024/01/19 01:28:03;;;;;;;9.57;2.53;;;0.10;99.90;;;;;;5088800;28;20070;-71
2024/01/19 01:30:29;;;;;;;8.00;2.30;;;0.10;99.90;;;;;;5073139;28;20048;-71
2024/01/19 01:32:55;;;;;;;7.63;2.50;;;0.10;99.90;;;;;;5102505;28;20048;-71
2024/01/19 01:35:20;;;;;;;9.47;3.03;;;0.10;99.90;;;;;;5088443;28;20059;-70
2024/01/19 01:37:46;;;;;;;7.63;2.27;;;0.20;99.90;;;;;;5086028;28;20118;-71
2024/01/19 01:40:12;;;;;;;11.00;2.63;;;0.10;99.90;;;;;;5088699;28;20522;-71
2024/01/19 01:42:41;;;;;;;10.30;2.47;;;0.10;99.90;;;;;;5087299;28;20036;-71
2024/01/19 01:45:08;;;;;;;7.77;2.60;;;0.10;99.90;;;;;;5085082;28;20040;-71
2024/01/19 01:47:34;;;;;;;9.40;2.50;;;0.20;99.90;;;;;;5087209;28;20032;-71
2024/01/19 01:50:00;;;;;;;10.23;2.30;;;0.20;99.90;;;;;;5072254;28;20604;-72
2024/01/19 01:52:26;;;;;;;7.30;1.83;;;0.30;99.90;;;;;;5088658;28;20051;-71
2024/01/19 01:54:55;;;;;;;5.80;1.97;;;0.30;99.90;;;;;;5070724;28;20048;-71
2024/01/19 01:57:24;;;;;;;10.63;2.33;;;0.30;99.90;;;;;;5078994;28;20055;-71
2024/01/19 01:59:51;;;;;;;9.10;1.77;;;0.40;99.90;;;;;;5089093;28;20509;-71
2024/01/19 02:02:17;;;;;;;10.97;2.50;;;0.30;99.90;;;;;;5088115;28;20066;-71
2024/01/19 02:04:43;;;;;;;4.47;1.10;;;0.30;99.90;;;;;;5084601;28;20056;-72
2024/01/19 02:07:09;;;;;;;6.80;1.90;;;0.30;99.90;;;;;;5090683;28;20040;-71
2024/01/19 02:09:36;;;;;;;6.50;1.53;;;0.20;99.90;;;;;;5083940;28;20044;-71
2024/01/19 02:12:03;;;;;;;10.73;1.90;;;0.20;99.90;;;;;;5069269;28;20560;-71
2024/01/19 02:14:29;;;;;;;10.13;1.67;;;0.10;99.90;;;;;;5082437;28;20082;-71
2024/01/19 02:16:55;;;;;;;5.63;1.63;;;0.10;99.90;;;;;;5072181;28;20083;-71
2024/01/19 02:19:20;;;;;;;7.17;1.90;;;0.00;99.90;;;;;;5087967;28;20090;-71
2024/01/19 02:21:46;;;;;;;7.80;2.37;;;0.00;99.90;;;;;;5088004;28;20055;-71
2024/01/19 02:24:16;;;;;;;7.20;1.93;;;0.00;99.90;;;;;;5064774;28;20094;-71
2024/01/19 02:26:41;;;;;;;8.93;2.47;;;0.00;99.90;;;;;;5068984;28;20050;-71
2024/01/19 02:29:10;;;;;;;9.47;2.93;;;-0.10;99.90;;;;;;5071887;28;20401;-71
2024/01/19 02:31:36;;;;;;;7.87;2.60;;;-0.10;99.90;;;;;;5086098;28;20035;-71
2024/01/19 02:34:02;;;;;;;12.27;3.10;;;-0.20;99.90;;;;;;5088878;28;20050;-71
2024/01/19 02:36:28;;;;;;;9.53;3.00;;;-0.20;99.90;;;;;;5068108;28;20039;-71
2024/01/19 02:38:53;;;;;;;9.17;3.07;;;-0.20;99.90;;;;;;5090229;28;20737;-71
2024/01/19 02:41:19;;;;;;;10.97;3.60;;;-0.30;99.90;;;;;;5087296;28;20055;-71
2024/01/19 02:43:45;;;;;;;9.20;2.17;;;-0.30;99.90;;;;;;5085061;28;20047;-71
2024/01/19 02:46:14;;;;;;;8.93;2.10;;;-0.30;99.90;;;;;;5086806;28;20079;-71
2024/01/19 02:48:39;;;;;;;5.80;2.17;;;-0.30;99.90;;;;;;5084247;28;20048;-70
2024/01/19 02:51:05;;;;;;;8.17;1.80;;;-0.30;99.90;;;;;;5099343;28;20555;-70
2024/01/19 02:53:31;;;;;;;7.40;2.10;;;-0.30;99.90;;;;;;5087110;28;20126;-71
2024/01/19 02:55:58;;;;;;;5.33;1.53;;;-0.30;99.90;;;;;;5074517;28;20629;-71
2024/01/19 02:58:24;;;;;;;7.40;1.73;;;-0.20;99.90;;;;;;5077783;28;20741;-71
2024/01/19 03:00:49;;;;;;;4.77;1.33;;;-0.20;99.90;;;;;;5085775;28;20039;-71
2024/01/19 03:03:15;;;;;;;4.97;1.47;;;-0.20;99.90;;;;;;5073410;28;20349;-71
2024/01/19 03:05:41;;;;;;;4.67;1.70;;;-0.10;99.90;;;;;;5086463;28;20040;-71
2024/01/19 03:08:07;;;;;;;7.30;2.03;;;-0.20;99.90;;;;;;5084711;28;20047;-72
2024/01/19 03:10:32;;;;;;;7.73;1.57;;;-0.10;99.90;;;;;;5086504;28;20073;-71
2024/01/19 03:12:58;;;;;;;6.43;1.40;;;-0.10;99.90;;;;;;5072243;28;20039;-72
2024/01/19 03:15:24;;;;;;;5.17;1.10;;;0.00;99.90;;;;;;5084453;28;20044;-72
2024/01/19 03:17:50;;;;;;;7.97;1.40;;;0.00;99.90;;;;;;5077084;28;20062;-72
2024/01/19 03:20:16;;;;;;;4.63;1.33;;;0.10;99.90;;;;;;5088992;28;20055;-72
2024/01/19 03:22:41;;;;;;;5.17;1.23;;;0.00;99.90;;;;;;5071008;28;20067;-71
2024/01/19 03:25:07;;;;;;;7.30;1.33;;;0.10;99.90;;;;;;5076359;28;20525;-72
2024/01/19 03:27:33;;;;;;;7.80;1.57;;;0.00;99.90;;;;;;5075334;28;20031;-74
2024/01/19 03:29:59;;;;;;;4.97;1.23;;;0.00;99.90;;;;;;5083430;28;20043;-75
2024/01/19 03:32:25;;;;;;;6.83;1.40;;;0.00;99.90;;;;;;5071647;28;20393;-75
2024/01/19 03:34:53;;;;;;;9.67;1.87;;;0.10;99.90;;;;;;5085759;28;20044;-75
2024/01/19 03:37:19;;;;;;;5.80;1.23;;;0.10;99.90;;;;;;5090212;28;20035;-75
2024/01/19 03:39:44;;;;;;;6.00;1.30;;;0.00;99.90;;;;;;5087362;28;20045;-75
2024/01/19 03:42:10;;;;;;;6.47;1.37;;;0.10;99.90;;;;;;5068092;28;20047;-74
2024/01/19 03:44:36;;;;;;;10.43;1.40;;;0.10;99.90;;;;;;5091349;28;20043;-74
2024/01/19 03:47:02;;;;;;;7.23;1.50;;;0.20;99.90;;;;;;5089442;28;20070;-74
2024/01/19 03:49:27;;;;;;;6.77;1.50;;;0.20;99.90;;;;;;5093901;28;20055;-75
2024/01/19 03:52:05;;;;;;;5.07;1.30;;;0.20;99.90;;;;;;5089215;28;20039;-75
2024/01/19 03:54:34;;;;;;;4.60;1.40;;;0.20;99.90;;;;;;5092194;28;20160;-72
2024/01/19 03:57:07;;;;;;;4.07;1.65;;;0.20;99.90;;;;;;5098137;28;20059;-72
2024/01/19 03:59:33;;;;;;;8.37;1.97;;;0.20;99.90;;;;;;5092461;28;20050;-72
2024/01/19 04:02:00;;;;;;;12.10;2.33;;;0.20;99.90;;;;;;5096906;28;20039;-72
2024/01/19 04:04:26;;;;;;;4.17;1.53;;;0.20;99.90;;;;;;5094688;28;20501;-72
2024/01/19 04:06:53;;;;;;;4.63;1.80;;;0.20;99.90;;;;;;5087411;28;20176;-72
2024/01/19 04:09:19;;;;;;;7.05;1.65;;;0.10;99.90;;;;;;5093100;28;20088;-72
2024/01/19 04:11:45;;;;;;;5.37;1.57;;;0.10;99.90;;;;;;5093064;28;20130;-72
2024/01/19 04:14:11;;;;;;;4.57;1.40;;;0.00;99.90;;;;;;5096178;28;20050;-72
2024/01/19 04:16:38;;;;;;;5.67;1.63;;;-0.10;99.90;;;;;;5088191;28;20417;-74
2024/01/19 04:19:05;;;;;;;5.00;2.00;;;-0.10;99.90;;;;;;5089855;28;20438;-74
2024/01/19 04:21:32;;;;;;;5.67;1.80;;;-0.20;99.90;;;;;;5090634;28;20040;-75
2024/01/19 04:23:58;;;;;;;5.83;1.90;;;-0.20;99.90;;;;;;5082151;28;20190;-74
2024/01/19 04:26:24;;;;;;;7.33;2.30;;;-0.30;99.90;;;;;;5071925;28;20132;-74
2024/01/19 04:28:50;;;;;;;8.07;2.30;;;-0.30;99.90;;;;;;5085138;28;20047;-75
2024/01/19 04:31:15;;;;;;;7.30;2.73;;;-0.40;99.90;;;;;;5104009;28;20639;-74
2024/01/19 04:33:41;;;;;;;10.83;3.03;;;-0.40;99.90;;;;;;5090468;28;20087;-74
2024/01/19 04:36:07;;;;;;;8.70;2.77;;;-0.50;99.90;;;;;;5091235;28;20119;-71
2024/01/19 04:38:33;;;;;;;6.97;2.50;;;-0.50;99.90;;;;;;5099858;28;20188;-71
2024/01/19 04:40:59;;;;;;;10.47;3.17;;;-0.60;99.90;;;;;;5086181;28;20051;-71
2024/01/19 04:43:24;;;;;;;9.97;2.90;;;-0.70;99.90;;;;;;5094832;28;20035;-71
2024/01/19 04:45:50;;;;;;;9.43;2.43;;;-0.80;99.90;;;;;;5089954;28;20161;-71
2024/01/19 04:48:16;;;;;;;6.80;1.70;;;-0.90;99.90;;;;;;5089797;28;20402;-71
2024/01/19 04:50:42;;;;;;;3.70;1.10;;;-1.00;99.90;;;;;;5068304;28;20040;-71
2024/01/19 04:53:07;;;;;;;5.10;1.30;;;-1.00;99.90;;;;;;5074436;28;20040;-71
2024/01/19 04:55:33;;;;;;;6.27;1.33;;;-1.00;99.90;;;;;;5096281;28;20035;-71
2024/01/19 04:57:59;;;;;;;5.57;1.60;;;-1.00;99.90;;;;;;5090842;28;20483;-71
2024/01/19 05:00:25;;;;;;;6.83;1.70;;;-1.00;99.90;;;;;;5086333;28;20159;-72
2024/01/19 05:02:54;;;;;;;5.97;1.53;;;-1.00;99.90;;;;;;5065308;28;20067;-74
2024/01/19 05:05:19;;;;;;;9.50;2.23;;;-1.00;99.90;;;;;;5090003;28;20122;-74
2024/01/19 05:07:45;;;;;;;7.30;1.90;;;-1.00;99.90;;;;;;5072496;28;20661;-74
2024/01/19 05:10:11;;;;;;;6.03;1.77;;;-1.00;99.90;;;;;;5073044;28;20723;-72
2024/01/19 05:12:37;;;;;;;7.63;1.80;;;-1.00;99.90;;;;;;5067720;28;20085;-72
2024/01/19 05:15:03;;;;;;;8.73;2.07;;;-1.10;99.90;;;;;;5089217;28;20485;-71
2024/01/19 05:17:28;;;;;;;5.53;1.97;;;-1.00;99.90;;;;;;5073453;28;20035;-71
2024/01/19 05:19:58;;;;;;;5.93;1.60;;;-1.10;99.90;;;;;;5088630;28;20050;-71
2024/01/19 05:22:23;;;;;;;8.05;1.67;;;-1.10;99.90;;;;;;5087904;28;20114;-71
2024/01/19 05:24:49;;;;;;;6.57;1.60;;;-1.10;99.90;;;;;;5073699;28;20123;-71
2024/01/19 05:27:15;;;;;;;8.03;1.90;;;-1.10;99.90;;;;;;5089550;28;20039;-69
2024/01/19 05:29:41;;;;;;;5.33;1.40;;;-1.20;99.90;;;;;;5084270;28;20046;-68
2024/01/19 05:32:07;;;;;;;6.47;1.70;;;-1.20;99.90;;;;;;5087228;28;20130;-68
2024/01/19 05:34:32;;;;;;;7.53;2.00;;;-1.20;99.90;;;;;;5073725;28;20076;-68
2024/01/19 05:36:58;;;;;;;5.33;1.80;;;-1.20;99.90;;;;;;5085845;28;20117;-69
2024/01/19 05:39:24;;;;;;;11.37;2.00;;;-1.20;99.90;;;;;;5091942;28;20043;-68
2024/01/19 05:41:49;;;;;;;10.97;2.90;;;-1.20;99.90;;;;;;5096541;28;20036;-71
2024/01/19 05:44:15;;;;;;;7.70;1.97;;;-1.20;99.90;;;;;;5069136;28;20561;-71
2024/01/19 05:46:41;;;;;;;8.87;2.30;;;-1.30;99.90;;;;;;5089129;28;20193;-71
2024/01/19 05:49:07;;;;;;;6.43;1.87;;;-1.30;99.90;;;;;;5083429;28;20416;-71
2024/01/19 05:51:32;;;;;;;7.53;2.30;;;-1.30;99.90;;;;;;5094242;28;20055;-71
2024/01/19 05:53:58;;;;;;;9.37;2.60;;;-1.30;99.90;;;;;;5087796;28;20047;-71
2024/01/19 05:56:25;;;;;;;8.20;2.20;;;-1.40;99.90;;;;;;5097347;28;20035;-71
2024/01/19 05:58:50;;;;;;;7.70;2.50;;;-1.40;99.90;;;;;;5088433;28;20393;-71
2024/01/19 06:01:17;;;;;;;8.43;1.90;;;-1.40;99.90;;;;;;5094397;28;20084;-71
2024/01/19 06:03:42;;;;;;;8.93;2.20;;;-1.50;99.90;;;;;;5069951;28;20041;-71
2024/01/19 06:06:08;;;;;;;11.00;2.23;;;-1.50;99.90;;;;;;5091207;28;20043;-71
2024/01/19 06:08:34;;;;;;;9.30;2.27;;;-1.50;99.90;;;;;;5087643;28;20035;-71
2024/01/19 06:11:00;;;;;;;10.17;2.07;;;-1.60;99.90;;;;;;5090934;28;20052;-71
2024/01/19 06:13:28;;;;;;;15.13;2.80;;;-1.70;99.90;;;;;;5082293;28;21767;-71
2024/01/19 06:15:54;;;;;;;8.40;1.80;;;-1.70;99.90;;;;;;5086486;28;20761;-73
2024/01/19 06:18:20;;;;;;;10.37;2.50;;;-1.70;99.90;;;;;;5086646;28;20050;-73
2024/01/19 06:20:45;;;;;;;20.30;2.93;;;-1.70;99.90;;;;;;5088847;28;20048;-73
2024/01/19 06:23:12;;;;;;;10.80;2.37;;;-1.60;99.90;;;;;;5068872;28;20055;-73
2024/01/19 06:25:39;;;;;;;10.97;2.83;;;-1.60;99.90;;;;;;5087153;28;20387;-74
2024/01/19 06:28:06;;;;;;;13.33;2.87;;;-1.50;99.90;;;;;;5066252;28;20581;-74
2024/01/19 06:30:32;;;;;;;9.93;2.73;;;-1.50;99.90;;;;;;5089306;28;20044;-73
2024/01/19 06:32:58;;;;;;;11.23;3.10;;;-1.40;99.90;;;;;;5086578;28;20043;-73
2024/01/19 06:35:24;;;;;;;9.97;2.70;;;-1.30;99.90;;;;;;5067952;28;20493;-73
2024/01/19 06:37:49;;;;;;;12.03;3.13;;;-1.20;99.90;;;;;;5084903;28;20043;-74
2024/01/19 06:40:15;;;;;;;15.00;2.60;;;-1.00;99.90;;;;;;5087397;28;20082;-74
2024/01/19 06:42:43;;;;;;;13.73;3.10;;;-0.90;99.90;;;;;;5084173;28;20039;-74
2024/01/19 06:45:10;;;;;;;14.43;3.40;;;-0.70;99.90;;;;;;5069185;28;20557;-74
2024/01/19 06:47:35;;;;;;;14.13;3.10;;;-0.60;99.90;;;;;;5089618;28;20390;-74
2024/01/19 06:50:01;;;;;;;13.03;3.60;;;-0.60;99.90;;;;;;5084341;28;20052;-75
2024/01/19 06:52:27;;;;;;;17.10;4.10;;;-0.50;99.90;;;;;;5071024;28;20043;-71
2024/01/19 06:54:53;;;;;;;18.57;3.23;;;-0.50;99.90;;;;;;5090622;28;20489;-72
2024/01/19 06:57:19;;;;;;;9.83;2.43;;;-0.50;99.90;;;;;;5068862;28;20400;-71
2024/01/19 06:59:44;;;;;;;14.53;2.43;;;-0.50;99.90;;;;;;5068779;28;20176;-72
2024/01/19 07:02:11;;;;;;;10.70;2.83;;;-0.60;99.90;;;;;;5089486;28;20509;-71
2024/01/19 07:04:36;;;;;;;12.90;2.50;;;-0.60;99.90;;;;;;5090895;28;20039;-71
2024/01/19 07:07:03;;;;;;;11.37;2.63;;;-0.60;99.90;;;;;;5099146;28;20039;-71
2024/01/19 07:09:29;;;;;;;12.50;2.50;;;-0.70;99.90;;;;;;5081769;28;20048;-71
2024/01/19 07:11:54;;;;;;;10.43;2.17;;;-0.70;99.90;;;;;;5086682;28;20077;-71
2024/01/19 07:14:20;;;;;;;9.13;2.40;;;-0.70;99.90;;;;;;5086285;28;21257;-71
2024/01/19 07:16:46;;;;;;;13.37;3.13;;;-0.80;99.90;;;;;;5093571;28;20052;-69
2024/01/19 07:19:12;;;;;;;9.17;2.17;;;-0.90;99.90;;;;;;5090069;28;20200;-72
2024/01/19 07:21:39;;;;;;;11.73;2.20;;;-0.90;99.90;;;;;;5074373;28;20163;-72
2024/01/19 07:24:07;;;;;;;10.20;2.23;;;-0.90;99.90;;;;;;5092724;28;20040;-72
2024/01/19 07:26:33;;;;;;;10.23;2.10;;;-1.00;99.90;;;;;;5085343;28;20058;-72
2024/01/19 07:29:04;;;;;;;7.73;2.03;;;-1.10;99.90;;;;;;5085224;28;20056;-72
2024/01/19 07:31:33;;;;;;;9.80;2.23;;;-1.10;99.90;;;;;;5079347;28;20137;-72
2024/01/19 07:33:59;;;;;;;9.60;2.37;;;-1.10;99.90;;;;;;5075259;28;20044;-72
2024/01/19 07:36:28;;;;;;;9.87;2.83;;;-1.10;99.90;;;;;;5095251;28;20067;-72
2024/01/19 07:38:54;;;;;;;13.60;2.97;;;-1.10;99.90;;;;;;5087482;28;20493;-72
2024/01/19 07:41:20;;;;;;;13.13;3.33;;;-1.10;99.90;;;;;;5072248;28;20398;-72
2024/01/19 07:43:46;;;;;;;11.70;2.83;;;-1.10;99.90;;;;;;5072153;28;20042;-72
2024/01/19 07:46:14;;;;;;;14.10;2.83;;;-1.10;99.90;;;;;;5088915;28;20472;-72
2024/01/19 07:48:40;;;;;;;10.93;2.87;;;-1.00;99.90;;;;;;5092873;28;20494;-72
2024/01/19 07:51:06;;;;;;;10.67;2.30;;;-1.00;99.90;;;;;;5084759;28;20154;-72
2024/01/19 07:53:32;;;;;;;9.30;2.27;;;-0.90;99.90;;;;;;5094357;28;20565;-72
2024/01/19 07:55:58;;;;;;;9.33;2.50;;;-0.90;99.90;;;;;;5091961;28;20397;-73
2024/01/19 07:58:27;;;;;;;10.47;2.20;;;-0.80;99.90;;;;;;5091559;28;20389;-71
2024/01/19 08:00:53;;;;;;;9.00;3.00;;;-0.80;99.90;;;;;;5095071;28;20043;-72
2024/01/19 08:03:20;;;;;;;16.60;3.00;;;-0.70;99.90;;;;;;5068313;28;20044;-72
2024/01/19 08:05:46;;;;;;;7.50;2.37;;;-0.60;99.90;;;;;;5084176;28;20043;-72
2024/01/19 08:08:12;;;;;;;8.50;2.20;;;-0.50;99.90;;;;;;5069325;28;20100;-72
2024/01/19 08:10:38;;;;;;;9.23;2.20;;;-0.40;99.90;;;;;;5078700;28;20070;-72
2024/01/19 08:13:07;;;;;;;9.43;2.37;;;-0.40;99.90;;;;;;5090254;28;20476;-72
2024/01/19 08:15:32;;;;;;;9.40;2.40;;;-0.30;99.90;;;;;;5092297;28;20145;-72
2024/01/19 08:17:58;;;;;;;9.67;2.63;;;-0.10;99.90;;;;;;5088877;28;20133;-72
2024/01/19 08:20:24;;;;;;;9.57;2.60;;;-0.20;99.90;;;;;;5089032;28;20126;-72
2024/01/19 08:22:53;;;;;;;8.07;2.20;;;-0.10;99.90;;;;;;5108316;27;20055;-72
2024/01/19 08:25:19;;;;;;;9.70;2.27;;;-0.10;99.90;;;;;;5072373;28;20040;-72
2024/01/19 08:27:46;;;;;;;7.37;2.47;;;-0.10;99.90;;;;;;5092471;28;20032;-72
2024/01/19 08:30:12;;;;;;;10.97;2.80;;;-0.20;99.90;;;;;;5092423;28;20044;-73
2024/01/19 08:32:38;;;;;;;10.10;2.80;;;-0.10;99.90;;;;;;5092191;28;20381;-72
2024/01/19 08:35:08;;;;;;;14.53;3.13;;;-0.20;99.90;;;;;;5087039;28;20039;-72
2024/01/19 08:37:41;;;;;;;10.27;3.00;;;-0.20;99.90;;;;;;5088389;28;20056;-73
2024/01/19 08:40:11;;;;;;;7.93;2.73;;;-0.20;99.90;;;;;;5096950;28;20828;-72
2024/01/19 08:42:37;;;;;;;;;;;-0.20;99.90;;;;;;5092148;28;20035;-73
2024/01/19 08:45:04;;;;;;;7.13;2.50;;;-0.20;99.90;;;;;;5099499;28;19926;-72
2024/01/19 08:47:30;;;;;;;10.43;2.57;;;-0.20;99.90;;;;;;5089924;28;20098;-73
2024/01/19 08:49:56;;;;;;;14.10;3.30;;;-0.20;99.90;;;;;;5088218;28;20517;-72
2024/01/19 08:52:22;;;;;;;9.60;2.73;;;-0.10;99.90;;;;;;5087792;28;20131;-72
2024/01/19 08:54:48;;;;;;;13.00;3.17;;;-0.10;99.90;;;;;;5088444;28;20035;-72
2024/01/19 08:57:14;;;;;;;10.37;4.37;;;0.00;99.90;;;;;;5088489;28;20409;-72
2024/01/19 08:59:40;;;;;;;6.60;3.10;;;-0.10;99.90;;;;;;5090614;28;20062;-72
2024/01/19 09:02:06;;;;;;;7.63;2.60;;;-0.10;99.90;;;;;;5089543;28;20464;-73
2024/01/19 09:04:35;;;;;;;10.40;2.90;;;-0.10;99.90;;;;;;5076861;28;20046;-73
2024/01/19 09:07:01;;;;;;;8.87;3.00;;;-0.10;99.90;;;;;;5105182;27;20108;-73
2024/01/19 09:09:27;;;;;;;8.37;2.80;;;-0.10;99.90;;;;;;5072184;28;20043;-72
2024/01/19 09:11:53;;;;;;;7.03;2.50;;;-0.10;99.90;;;;;;5090220;28;20039;-72
2024/01/19 09:14:20;;;;;;;8.93;2.83;;;0.00;99.90;;;;;;5093835;28;20435;-72
2024/01/19 09:16:46;;;;;;;9.53;3.00;;;-0.10;99.90;;;;;;5087450;28;20587;-72
2024/01/19 09:19:12;;;;;;;11.37;3.00;;;0.00;99.90;;;;;;5090809;28;20043;-73
2024/01/19 09:21:45;;;;;;;9.97;2.60;;;0.00;99.90;;;;;;5093890;28;20923;-72
2024/01/19 09:24:12;;;;;;;10.90;2.87;;;0.00;99.90;;;;;;5086873;28;20050;-72
2024/01/19 09:26:38;;;;;;;9.07;2.90;;;0.00;99.90;;;;;;5088348;28;20031;-72
2024/01/19 09:29:04;;;;;;;11.97;3.50;;;0.00;99.90;;;;;;5075592;28;20043;-72
2024/01/19 09:31:30;;;;;;;6.80;2.70;;;0.10;99.90;;;;;;5087191;28;20047;-72
2024/01/19 09:33:56;;;;;;;9.77;2.60;;;0.20;99.90;;;;;;5077931;28;20043;-73
2024/01/19 09:36:22;;;;;;;10.13;3.40;;;0.10;99.90;;;;;;5092206;28;20097;-72
2024/01/19 09:38:47;;;;;;;12.60;3.17;;;0.10;99.90;;;;;;5089572;28;20047;-73
2024/01/19 09:41:13;;;;;;;7.53;3.00;;;0.20;99.90;;;;;;5096775;28;20080;-73
2024/01/19 09:43:41;;;;;;;9.23;3.23;;;0.20;99.90;;;;;;5068826;28;20567;-72
2024/01/19 09:46:20;;;;;;;11.27;3.23;;;0.20;99.90;;;;;;5074040;28;20047;-72
2024/01/19 09:49:15;;;;;;;12.60;3.50;;;0.20;99.90;;;;;;5095029;28;20050;-73
2024/01/19 09:52:06;;;;;;;10.67;3.40;;;0.30;99.90;;;;;;5056367;28;20131;-72
2024/01/19 09:54:36;;;;;;;8.70;3.13;;;0.30;99.90;;;;;;5054845;28;20579;-73
2024/01/19 09:57:02;;;;;;;9.73;2.92;;;0.30;99.90;;;;;;5074544;28;20047;-72
2024/01/19 09:59:32;;;;;;;11.63;3.67;;;0.30;99.90;;;;;;5087764;28;20100;-73
2024/01/19 10:02:00;;;;;;;11.93;3.65;;;0.40;99.90;;;;;;5075552;28;20054;-72
2024/01/19 10:04:27;;;;;;;12.87;3.63;;;0.40;99.90;;;;;;5070720;28;20119;-73
2024/01/19 10:06:54;;;;;;;10.83;3.80;;;0.40;99.90;;;;;;5086993;28;20039;-73
2024/01/19 10:09:22;;;;;;;13.30;3.93;;;0.40;99.90;;;;;;5094466;28;20067;-72
2024/01/19 10:11:54;;;;;;;11.37;4.00;;;0.50;99.90;;;;;;5078740;28;20089;-73
2024/01/19 10:14:21;;;;;;;12.50;4.27;;;0.50;99.90;;;;;;5086010;28;20044;-73
2024/01/19 10:16:51;;;;;;;12.37;4.33;;;0.50;99.90;;;;;;5088923;28;20521;-73
2024/01/19 10:19:20;;;;;;;11.35;4.82;;;0.60;99.90;;;;;;5093534;28;20193;-73
2024/01/19 10:21:52;;;;;;;9.07;4.17;;;0.60;99.90;;;;;;5078733;28;20049;-73
2024/01/19 10:24:19;;;;;;;13.37;4.77;;;0.70;99.90;;;;;;5071090;28;20088;-73
2024/01/19 10:26:57;;;;;;;14.07;5.10;;;0.70;99.90;;;;;;5070924;28;20042;-73
2024/01/19 10:29:23;;;;;;;11.87;5.00;;;0.70;99.90;;;;;;5088039;28;20126;-73
2024/01/19 10:31:52;;;;;;;11.30;4.73;;;0.80;99.90;;;;;;5088971;28;20177;-73
2024/01/19 10:34:19;;;;;;;11.57;4.47;;;0.80;99.90;;;;;;5086580;28;20379;-73
2024/01/19 10:36:46;;;;;;;10.27;5.00;;;0.90;99.90;;;;;;5085901;28;20039;-73
2024/01/19 10:39:30;;;;;;;12.37;5.20;;;0.90;99.90;;;;;;5072026;28;20044;-73
2024/01/19 10:42:07;;;;;;;11.27;5.20;;;1.00;99.90;;;;;;5084653;28;20096;-73
2024/01/19 10:44:34;;;;;;;12.23;5.13;;;1.10;99.90;;;;;;5094162;28;20097;-73
2024/01/19 10:47:00;;;;;;;11.60;5.63;;;1.20;99.90;;;;;;5086460;28;20051;-73
2024/01/19 10:49:26;;;;;;;12.67;4.97;;;1.20;99.90;;;;;;5093145;28;20047;-73
2024/01/19 10:51:53;;;;;;;15.77;5.83;;;1.20;99.90;;;;;;5087204;28;20046;-73
2024/01/19 10:54:27;;;;;;;12.07;5.27;;;1.20;99.90;;;;;;5089650;28;20036;-73
2024/01/19 10:57:08;;;;;;;13.73;5.70;;;1.30;99.90;;;;;;5086116;28;20051;-73
2024/01/19 10:59:34;;;;;;;11.67;5.40;;;1.40;99.90;;;;;;5075604;28;20035;-73
2024/01/19 11:02:02;;;;;;;13.23;5.43;;;1.40;99.90;;;;;;5095159;28;20096;-73
2024/01/19 11:04:28;;;;;;;12.00;5.30;;;1.40;99.90;;;;;;5071048;28;20042;-73
2024/01/19 11:06:55;;;;;;;17.03;5.90;;;1.30;99.90;;;;;;5080642;28;20065;-73
2024/01/19 11:09:21;;;;;;;13.52;5.28;;;1.40;99.90;;;;;;5091115;28;20731;-73
2024/01/19 11:11:58;;;;;;;11.48;4.53;;;1.40;99.90;;;;;;5091130;28;20101;-73
2024/01/19 11:14:28;;;;;;;16.67;5.17;;;1.50;99.90;;;;;;5090448;28;20096;-73
2024/01/19 11:16:55;;;;;;;11.80;4.43;;;1.50;99.90;;;;;;5089544;28;20050;-73
2024/01/19 11:19:24;;;;;;;14.35;4.70;;;1.60;99.90;;;;;;5089475;28;20120;-73
2024/01/19 11:21:51;;;;;;;11.90;4.03;;;1.60;99.90;;;;;;5089803;28;20042;-73
2024/01/19 11:24:19;;;;;;;12.63;4.57;;;1.70;99.90;;;;;;5099009;28;20043;-73
2024/01/19 11:27:09;;;;;;;15.30;4.97;;;1.70;99.90;;;;;;5089379;28;20051;-73
2024/01/19 11:29:43;;;;;;;8.75;4.18;;;1.70;99.90;;;;;;5095908;28;20036;-73
2024/01/19 11:32:11;;;;;;;9.40;4.18;;;1.80;99.90;;;;;;5088940;28;20048;-74
2024/01/19 11:34:50;;;;;;;10.53;4.60;;;1.80;99.90;;;;;;5079909;28;20051;-73
2024/01/19 11:37:38;;;;;;;15.07;4.30;;;1.80;99.90;;;;;;5069133;28;20047;-74
2024/01/19 11:40:05;;;;;;;11.38;3.70;;;1.90;99.90;;;;;;5066683;28;20273;-74
2024/01/19 11:42:34;;;;;;;12.13;3.78;;;1.90;99.90;;;;;;5077388;28;20536;-73
2024/01/19 11:45:00;;;;;;;9.98;3.97;;;2.00;99.90;;;;;;5078422;28;20658;-73
2024/01/19 11:47:40;;;;;;;11.75;4.00;;;2.00;99.90;;;;;;5088888;28;20092;-73
2024/01/19 11:50:11;;;;;;;12.38;4.32;;;2.10;99.90;;;;;;5075152;28;20126;-74
2024/01/19 11:52:39;;;;;;;9.75;3.53;;;2.10;99.90;;;;;;5090448;28;20501;-73
2024/01/19 11:55:23;;;;;;;12.45;3.85;;;2.20;99.90;;;;;;5070504;28;20050;-73
2024/01/19 11:57:49;;;;;;;13.57;3.47;;;2.20;99.90;;;;;;5086514;28;20427;-73
2024/01/19 12:00:16;;;;;;;10.57;3.65;;;2.20;99.90;;;;;;5071081;28;20086;-77
2024/01/19 12:02:42;;;;;;;14.00;4.20;;;2.30;99.90;;;;;;5092668;28;20739;-77
2024/01/19 12:05:10;;;;;;;13.60;3.17;;;2.30;99.90;;;;;;5087612;28;20043;-77
2024/01/19 12:07:36;;;;;;;11.80;3.58;;;2.40;99.90;;;;;;5091152;28;20039;-76
2024/01/19 12:10:05;;;;;;;10.60;3.28;;;2.40;99.90;;;;;;5087644;28;20073;-75
2024/01/19 12:12:32;;;;;;;11.32;3.47;;;2.40;99.90;;;;;;5094260;28;20156;-72
2024/01/19 12:14:58;;;;;;;12.85;3.28;;;2.40;99.90;;;;;;5087933;28;20124;-72
2024/01/19 12:17:25;;;;;;;15.18;4.00;;;2.50;99.90;;;;;;5089438;28;20037;-72
2024/01/19 12:19:54;;;;;;;12.85;3.47;;;2.50;99.90;;;;;;5092375;28;20035;-72
2024/01/19 12:22:20;;;;;;;20.30;3.73;;;2.60;99.90;;;;;;5080773;28;20043;-75
2024/01/19 12:24:46;;;;;;;10.73;3.45;;;2.60;99.90;;;;;;5074053;28;20576;-76
2024/01/19 12:27:20;;;;;;;12.68;3.38;;;2.60;99.90;;;;;;5093682;28;20070;-76
2024/01/19 12:29:45;;;;;;;12.65;4.38;;;2.70;99.90;;;;;;5073084;28;20360;-75
2024/01/19 12:32:13;;;;;;;11.23;3.45;;;2.70;99.90;;;;;;5086430;28;20660;-76
2024/01/19 12:34:39;;;;;;;15.00;4.00;;;2.70;99.90;;;;;;5092340;28;20097;-76
2024/01/19 12:37:05;;;;;;;13.60;3.40;;;2.80;99.90;;;;;;5089561;28;20053;-76
2024/01/19 12:39:31;;;;;;;10.13;3.50;;;2.90;99.90;;;;;;5073380;28;20039;-76
2024/01/19 12:42:05;;;;;;;11.18;3.30;;;2.90;99.90;;;;;;5091515;28;20039;-76
2024/01/19 12:44:34;;;;;;;12.20;3.58;;;2.80;99.90;;;;;;5090310;28;20561;-76
2024/01/19 12:47:00;;;;;;;10.05;3.35;;;2.90;99.90;;;;;;5083416;28;20046;-76